createdAt,value
2023-03-20T00:00:34.100Z,147.93
2023-03-20T00:03:02.542Z,148.23
2023-03-20T00:05:31.983Z,148.43
2023-03-20T00:08:00.340Z,147.80
2023-03-20T00:10:35.629Z,147.93
2023-03-20T00:13:04.782Z,148.50
2023-03-20T00:15:36.482Z,148.63
2023-03-20T00:18:05.360Z,148.20
2023-03-20T00:20:33.276Z,147.83
2023-03-20T00:23:01.242Z,147.83
2023-03-20T00:25:29.242Z,148.33
2023-03-20T00:27:58.418Z,147.80
2023-03-20T00:30:29.536Z,148.07
2023-03-20T00:32:59.239Z,148.37
2023-03-20T00:35:29.882Z,147.90
2023-03-20T00:37:58.925Z,148.50
2023-03-20T00:40:32.039Z,148.60
2023-03-20T00:43:03.246Z,148.03
2023-03-20T00:45:34.046Z,148.63
2023-03-20T00:48:03.556Z,148.87
2023-03-20T00:50:32.213Z,148.23
2023-03-20T00:53:00.545Z,147.90
2023-03-20T00:55:30.557Z,147.93
2023-03-20T00:58:01.640Z,147.93
2023-03-20T01:00:39.634Z,147.70
2023-03-20T01:03:15.495Z,148.17
2023-03-20T01:05:43.902Z,147.83
2023-03-20T01:08:17.167Z,147.77
2023-03-20T01:10:46.911Z,147.63
2023-03-20T01:13:21.759Z,148.37
2023-03-20T01:15:51.424Z,148.03
2023-03-20T01:18:20.648Z,147.97
2023-03-20T01:20:49.340Z,147.50
2023-03-20T01:23:18.060Z,147.87
2023-03-20T01:25:46.047Z,148.13
2023-03-20T01:28:17.280Z,148.27
2023-03-20T01:30:47.646Z,147.97
2023-03-20T01:33:17.401Z,148.20
2023-03-20T01:35:47.686Z,147.40
2023-03-20T01:38:19.762Z,147.67
2023-03-20T01:40:57.242Z,147.83
2023-03-20T01:43:28.760Z,147.83
2023-03-20T01:46:03.127Z,147.97
2023-03-20T01:48:56.019Z,148.20
2023-03-20T01:51:25.855Z,148.03
2023-03-20T01:54:01.403Z,147.83
2023-03-20T01:56:33.139Z,148.20
2023-03-20T01:59:06.826Z,148.03
2023-03-20T02:01:38.109Z,148.20
2023-03-20T02:04:09.023Z,147.87
2023-03-20T02:06:49.220Z,147.93
2023-03-20T02:09:21.658Z,148.23
2023-03-20T02:11:50.787Z,148.10
2023-03-20T02:14:21.531Z,148.23
2023-03-20T02:17:04.124Z,148.33
2023-03-20T02:19:44.281Z,148.10
2023-03-20T02:22:51.944Z,147.67
2023-03-20T02:25:54.250Z,147.47
2023-03-20T02:28:59.670Z,147.57
2023-03-20T02:31:59.388Z,147.87
2023-03-20T02:35:06.078Z,147.50
2023-03-20T02:37:52.714Z,146.93
2023-03-20T02:40:31.610Z,147.83
2023-03-20T02:43:05.671Z,147.73
2023-03-20T02:45:39.486Z,148.23
2023-03-20T02:48:20.710Z,147.80
2023-03-20T02:50:54.291Z,148.37
2023-03-20T02:53:34.950Z,147.23
2023-03-20T02:56:12.578Z,147.47
2023-03-20T02:58:45.424Z,147.00
2023-03-20T03:01:19.822Z,147.33
2023-03-20T03:03:51.157Z,147.67
2023-03-20T03:06:23.048Z,147.70
2023-03-20T03:08:57.403Z,147.10
2023-03-20T03:11:25.270Z,148.00
2023-03-20T03:13:56.434Z,147.87
2023-03-20T03:16:28.672Z,147.70
2023-03-20T03:19:04.967Z,147.87
2023-03-20T03:21:35.699Z,147.57
2023-03-20T03:24:05.921Z,147.23
2023-03-20T03:26:38.907Z,146.77
2023-03-20T03:29:13.306Z,147.73
2023-03-20T03:31:42.561Z,147.03
2023-03-20T03:34:16.595Z,147.43
2023-03-20T03:36:52.567Z,147.50
2023-03-20T03:39:33.188Z,146.70
2023-03-20T03:42:07.602Z,147.17
2023-03-20T03:44:42.875Z,147.60
2023-03-20T03:47:15.216Z,147.33
2023-03-20T03:49:46.921Z,147.17
2023-03-20T03:52:18.962Z,146.70
2023-03-20T03:54:53.222Z,146.80
2023-03-20T03:57:33.646Z,146.70
2023-03-20T04:00:06.213Z,146.73
2023-03-20T04:02:42.418Z,146.90
2023-03-20T04:05:12.241Z,147.37
2023-03-20T04:07:40.829Z,147.20
2023-03-20T04:10:11.445Z,147.30
2023-03-20T04:12:42.525Z,147.50
2023-03-20T04:15:12.619Z,147.73
2023-03-20T04:17:41.204Z,146.57
2023-03-20T04:20:13.127Z,146.73
2023-03-20T04:22:41.241Z,147.10
2023-03-20T04:25:18.789Z,146.83
2023-03-20T04:27:47.126Z,146.57
2023-03-20T04:30:23.858Z,146.70
2023-03-20T04:33:10.617Z,146.70
2023-03-20T04:35:47.043Z,146.23
2023-03-20T04:38:16.958Z,147.13
2023-03-20T04:40:47.529Z,146.77
2023-03-20T04:43:16.246Z,146.97
2023-03-20T04:45:44.289Z,147.20
2023-03-20T04:48:12.136Z,146.57
2023-03-20T04:50:40.491Z,146.43
2023-03-20T04:53:08.484Z,146.87
2023-03-20T04:55:36.515Z,146.83
2023-03-20T04:58:05.856Z,146.27
2023-03-20T05:00:34.093Z,146.70
2023-03-20T05:03:01.975Z,146.33
2023-03-20T05:05:30.422Z,146.70
2023-03-20T05:07:58.302Z,145.90
2023-03-20T05:10:35.499Z,146.50
2023-03-20T05:13:16.076Z,146.07
2023-03-20T05:15:58.525Z,146.37
2023-03-20T05:18:39.869Z,146.27
2023-03-20T05:21:36.728Z,146.40
2023-03-20T05:24:28.946Z,146.50
2023-03-20T05:27:16.200Z,146.57
2023-03-20T05:30:11.186Z,146.40
2023-03-20T05:32:58.272Z,146.63
2023-03-20T05:35:28.892Z,146.33
2023-03-20T05:38:05.623Z,146.00
2023-03-20T05:40:58.403Z,146.13
2023-03-20T05:43:50.228Z,146.30
2023-03-20T05:46:39.793Z,146.67
2023-03-20T05:49:10.918Z,146.03
2023-03-20T05:52:07.930Z,147.07
2023-03-20T05:54:58.418Z,146.10
2023-03-20T05:57:40.325Z,146.33
2023-03-20T06:00:26.942Z,146.10
2023-03-20T06:03:16.257Z,145.90
2023-03-20T06:06:03.649Z,146.57
2023-03-20T06:08:31.511Z,145.93
2023-03-20T06:11:01.356Z,145.80
2023-03-20T06:13:29.859Z,145.63
2023-03-20T06:15:57.741Z,146.20
2023-03-20T06:18:27.138Z,145.77
2023-03-20T06:20:57.838Z,146.37
2023-03-20T06:23:28.347Z,145.80
2023-03-20T06:25:56.691Z,146.03
2023-03-20T06:28:24.756Z,145.67
2023-03-20T06:31:01.246Z,146.10
2023-03-20T06:33:31.972Z,146.70
2023-03-20T06:36:01.210Z,146.60
2023-03-20T06:38:31.904Z,146.33
2023-03-20T06:41:05.379Z,146.27
2023-03-20T06:43:33.500Z,145.73
2023-03-20T06:46:01.333Z,146.30
2023-03-20T06:48:32.718Z,146.30
2023-03-20T06:51:05.069Z,146.10
2023-03-20T06:53:39.520Z,146.30
2023-03-20T06:56:11.178Z,146.60
2023-03-20T06:58:41.440Z,145.90
2023-03-20T07:01:13.476Z,146.77
2023-03-20T07:03:43.171Z,146.40
2023-03-20T07:06:12.083Z,145.63
2023-03-20T07:08:40.298Z,146.83
2023-03-20T07:11:09.120Z,146.43
2023-03-20T07:13:37.966Z,146.40
2023-03-20T07:16:14.836Z,146.00
2023-03-20T07:18:44.487Z,146.60
2023-03-20T07:21:18.168Z,146.80
2023-03-20T07:23:46.030Z,147.30
2023-03-20T07:26:13.993Z,146.37
2023-03-20T07:28:42.009Z,147.00
2023-03-20T07:31:25.765Z,146.50
2023-03-20T07:34:24.096Z,146.77
2023-03-20T07:36:52.875Z,147.03
2023-03-20T07:39:23.570Z,146.03
2023-03-20T07:42:23.954Z,146.20
2023-03-20T07:44:58.911Z,146.67
2023-03-20T07:47:26.981Z,146.53
2023-03-20T07:49:56.286Z,146.83
2023-03-20T07:52:24.204Z,146.43
2023-03-20T07:54:54.048Z,147.03
2023-03-20T07:57:22.321Z,146.50
2023-03-20T07:59:50.226Z,146.33
2023-03-20T08:02:18.906Z,146.57
2023-03-20T08:04:47.436Z,147.30
2023-03-20T08:07:17.025Z,147.57
2023-03-20T08:09:48.268Z,147.10
2023-03-20T08:12:18.024Z,147.80
2023-03-20T08:14:45.867Z,147.27
2023-03-20T08:17:16.620Z,147.20
2023-03-20T08:19:46.212Z,147.60
2023-03-20T08:22:15.643Z,147.13
2023-03-20T08:24:43.524Z,147.17
2023-03-20T08:27:11.347Z,147.37
2023-03-20T08:29:39.171Z,147.27
2023-03-20T08:32:07.426Z,147.73
2023-03-20T08:34:35.278Z,147.70
2023-03-20T08:37:05.005Z,147.53
2023-03-20T08:39:34.306Z,147.77
2023-03-20T08:42:02.281Z,147.73
2023-03-20T08:44:30.334Z,147.53
2023-03-20T08:46:58.743Z,148.30
2023-03-20T08:49:27.877Z,148.23
2023-03-20T08:51:55.735Z,148.23
2023-03-20T08:54:23.555Z,148.60
2023-03-20T08:56:52.767Z,147.97
2023-03-20T08:59:21.085Z,148.23
2023-03-20T09:01:50.514Z,149.17
2023-03-20T09:04:19.226Z,148.47
2023-03-20T09:06:48.033Z,149.13
2023-03-20T09:09:18.401Z,148.83
2023-03-20T09:11:46.473Z,149.07
2023-03-20T09:14:15.998Z,148.67
2023-03-20T09:16:43.811Z,148.87
2023-03-20T09:19:11.717Z,149.17
2023-03-20T09:21:39.508Z,149.33
2023-03-20T09:24:08.257Z,149.17
2023-03-20T09:26:36.075Z,150.17
2023-03-20T09:29:03.943Z,149.87
2023-03-20T09:31:34.180Z,150.27
2023-03-20T09:34:02.085Z,149.23
2023-03-20T09:36:30.043Z,149.73
2023-03-20T09:38:57.840Z,150.20
2023-03-20T09:41:28.363Z,150.20
2023-03-20T09:44:14.819Z,149.43
2023-03-20T09:47:19.209Z,149.67
2023-03-20T09:49:57.073Z,149.93
2023-03-20T09:52:30.004Z,149.90
2023-03-20T09:55:02.246Z,149.33
2023-03-20T09:57:34.370Z,150.30
2023-03-20T10:00:07.288Z,149.63
2023-03-20T10:02:49.175Z,150.43
2023-03-20T10:05:22.283Z,150.10
2023-03-20T10:07:51.706Z,149.77
2023-03-20T10:10:20.888Z,149.70
2023-03-20T10:12:56.233Z,150.23
2023-03-20T10:15:36.896Z,150.20
2023-03-20T10:18:17.253Z,149.07
2023-03-20T10:20:52.753Z,149.50
2023-03-20T10:23:31.919Z,149.87
2023-03-20T10:26:03.821Z,150.27
2023-03-20T10:28:37.395Z,149.47
2023-03-20T10:31:19.479Z,149.97
2023-03-20T10:33:58.144Z,149.47
2023-03-20T10:36:41.334Z,149.70
2023-03-20T10:39:17.190Z,149.87
2023-03-20T10:41:53.916Z,149.93
2023-03-20T10:44:29.702Z,150.30
2023-03-20T10:47:00.150Z,150.17
2023-03-20T10:49:37.703Z,150.63
2023-03-20T10:52:12.559Z,151.10
2023-03-20T10:54:43.258Z,151.20
2023-03-20T10:57:18.897Z,151.43
2023-03-20T10:59:50.236Z,150.63
2023-03-20T11:02:19.998Z,149.90
2023-03-20T11:04:49.166Z,150.67
2023-03-20T11:07:24.595Z,149.83
2023-03-20T11:10:12.135Z,150.50
2023-03-20T11:12:41.948Z,150.33
2023-03-20T11:15:21.599Z,150.27
2023-03-20T11:17:57.463Z,151.13
2023-03-20T11:20:29.084Z,150.90
2023-03-20T11:23:02.477Z,150.77
2023-03-20T11:25:32.832Z,150.87
2023-03-20T11:28:27.260Z,150.70
2023-03-20T11:31:05.237Z,150.97
2023-03-20T11:33:37.891Z,150.67
2023-03-20T11:36:13.509Z,150.37
2023-03-20T11:38:46.226Z,150.37
2023-03-20T11:41:20.504Z,150.37
2023-03-20T11:43:48.362Z,150.90
2023-03-20T11:46:16.350Z,151.30
2023-03-20T11:48:46.452Z,151.07
2023-03-20T11:51:19.977Z,151.20
2023-03-20T11:54:01.410Z,150.97
2023-03-20T11:56:31.714Z,150.70
2023-03-20T11:59:03.409Z,150.57
2023-03-20T12:01:40.520Z,150.87
2023-03-20T12:04:12.568Z,150.77
2023-03-20T12:06:47.328Z,150.00
2023-03-20T12:09:36.589Z,150.63
2023-03-20T12:12:11.575Z,150.37
2023-03-20T12:14:46.526Z,150.07
2023-03-20T12:17:43.292Z,150.43
2023-03-20T12:20:21.312Z,149.93
2023-03-20T12:22:57.500Z,149.57
2023-03-20T12:25:27.498Z,149.93
2023-03-20T12:28:03.731Z,149.93
2023-03-20T12:30:40.170Z,150.43
2023-03-20T12:33:13.670Z,150.40
2023-03-20T12:35:45.506Z,150.10
2023-03-20T12:38:24.740Z,150.40
2023-03-20T12:40:58.246Z,150.20
2023-03-20T12:43:30.790Z,149.80
2023-03-20T12:46:05.456Z,150.03
2023-03-20T12:48:53.635Z,150.43
2023-03-20T12:51:27.295Z,149.70
2023-03-20T12:54:08.891Z,149.77
2023-03-20T12:56:59.199Z,149.63
2023-03-20T12:59:33.233Z,149.50
2023-03-20T13:02:13.290Z,149.20
2023-03-20T13:04:55.124Z,149.37
2023-03-20T13:07:26.633Z,149.43
2023-03-20T13:10:07.339Z,149.63
2023-03-20T13:12:43.238Z,149.43
2023-03-20T13:15:32.833Z,150.23
2023-03-20T13:18:07.984Z,149.50
2023-03-20T13:20:40.252Z,148.87
2023-03-20T13:23:14.607Z,149.13
2023-03-20T13:26:20.815Z,149.13
2023-03-20T13:28:57.112Z,149.13
2023-03-20T13:31:48.998Z,149.43
2023-03-20T13:34:26.767Z,149.30
2023-03-20T13:37:22.428Z,149.07
2023-03-20T13:40:01.649Z,149.03
2023-03-20T13:42:37.829Z,149.57
2023-03-20T13:45:14.916Z,149.10
2023-03-20T13:47:44.668Z,149.30
2023-03-20T13:50:28.514Z,149.37
2023-03-20T13:53:02.248Z,148.97
2023-03-20T13:55:39.303Z,149.00
2023-03-20T13:58:38.031Z,148.73
2023-03-20T14:01:12.522Z,149.00
2023-03-20T14:03:45.813Z,149.50
2023-03-20T14:06:51.299Z,149.20
2023-03-20T14:09:31.329Z,148.43
2023-03-20T14:12:02.978Z,148.77
2023-03-20T14:14:33.637Z,148.47
2023-03-20T14:17:12.924Z,148.53
2023-03-20T14:19:41.115Z,148.73
2023-03-20T14:22:16.941Z,148.23
2023-03-20T14:24:54.824Z,148.10
2023-03-20T14:27:36.825Z,148.53
2023-03-20T14:30:40.682Z,148.20
2023-03-20T14:33:26.025Z,148.70
2023-03-20T14:36:13.628Z,148.40
2023-03-20T14:38:53.366Z,148.57
2023-03-20T14:41:29.913Z,148.73
2023-03-20T14:44:07.653Z,149.20
2023-03-20T14:46:48.400Z,148.73
2023-03-20T14:49:45.879Z,148.77
2023-03-20T14:52:31.447Z,148.83
2023-03-20T14:55:28.715Z,148.83
2023-03-20T14:57:57.490Z,148.67
2023-03-20T15:00:28.281Z,149.43
2023-03-20T15:03:06.206Z,148.87
2023-03-20T15:05:36.858Z,148.87
2023-03-20T15:08:08.345Z,149.07
2023-03-20T15:10:39.284Z,149.17
2023-03-20T15:13:08.877Z,149.13
2023-03-20T15:15:36.745Z,148.33
2023-03-20T15:18:12.702Z,148.60
2023-03-20T15:20:40.823Z,148.50
2023-03-20T15:23:08.738Z,148.63
2023-03-20T15:25:40.833Z,148.40
2023-03-20T15:28:10.275Z,148.37
2023-03-20T15:30:40.716Z,148.53
2023-03-20T15:33:16.962Z,148.47
2023-03-20T15:35:44.882Z,148.70
2023-03-20T15:38:17.054Z,148.43
2023-03-20T15:40:51.134Z,148.50
2023-03-20T15:43:21.634Z,148.63
2023-03-20T15:45:50.640Z,148.53
2023-03-20T15:48:22.818Z,148.20
2023-03-20T15:50:54.713Z,147.93
2023-03-20T15:53:28.244Z,147.43
2023-03-20T15:56:16.835Z,148.17
2023-03-20T15:58:46.908Z,147.37
2023-03-20T16:01:19.077Z,147.73
2023-03-20T16:03:49.210Z,147.30
2023-03-20T16:06:20.449Z,147.37
2023-03-20T16:08:58.340Z,147.37
2023-03-20T16:11:26.537Z,147.93
2023-03-20T16:13:54.746Z,147.83
2023-03-20T16:16:24.611Z,147.93
2023-03-20T16:18:54.404Z,147.97
2023-03-20T16:21:26.141Z,146.87
2023-03-20T16:23:56.777Z,147.10
2023-03-20T16:26:26.931Z,147.80
2023-03-20T16:28:57.252Z,147.77
2023-03-20T16:31:28.394Z,147.53
2023-03-20T16:34:01.872Z,147.10
2023-03-20T16:36:31.471Z,147.07
2023-03-20T16:39:06.756Z,147.97
2023-03-20T16:41:36.908Z,147.33
2023-03-20T16:44:09.244Z,147.93
2023-03-20T16:46:37.163Z,147.80
2023-03-20T16:49:54.297Z,147.73
2023-03-20T16:52:26.919Z,147.10
2023-03-20T16:54:57.118Z,147.33
2023-03-20T16:57:27.155Z,147.33
2023-03-20T16:59:58.611Z,147.23
2023-03-20T17:02:30.963Z,147.03
2023-03-20T17:05:05.035Z,147.43
2023-03-20T17:07:33.569Z,147.17
2023-03-20T17:10:17.858Z,147.17
2023-03-20T17:12:47.622Z,147.57
2023-03-20T17:15:16.629Z,146.93
2023-03-20T17:17:44.641Z,146.77
2023-03-20T17:20:20.236Z,147.20
2023-03-20T17:22:48.526Z,146.87
2023-03-20T17:25:16.640Z,147.50
2023-03-20T17:27:44.951Z,147.20
2023-03-20T17:30:20.312Z,146.90
2023-03-20T17:32:48.402Z,147.70
2023-03-20T17:35:18.186Z,146.70
2023-03-20T17:37:46.335Z,147.53
2023-03-20T17:40:19.226Z,146.50
2023-03-20T17:42:47.701Z,146.77
2023-03-20T17:45:20.020Z,146.23
2023-03-20T17:47:49.094Z,146.17
2023-03-20T17:50:24.213Z,146.73
2023-03-20T17:52:52.218Z,146.63
2023-03-20T17:55:20.187Z,146.43
2023-03-20T17:57:48.514Z,146.87
2023-03-20T18:00:20.053Z,146.70
2023-03-20T18:02:47.953Z,147.37
2023-03-20T18:05:15.875Z,146.60
2023-03-20T18:07:45.215Z,146.13
2023-03-20T18:10:21.734Z,146.97
2023-03-20T18:12:49.537Z,146.37
2023-03-20T18:15:17.419Z,146.00
2023-03-20T18:17:45.242Z,146.87
2023-03-20T18:20:25.185Z,146.47
2023-03-20T18:22:54.554Z,146.80
2023-03-20T18:25:23.221Z,146.37
2023-03-20T18:27:51.302Z,146.37
2023-03-20T18:30:22.485Z,146.77
2023-03-20T18:32:50.316Z,146.53
2023-03-20T18:35:18.472Z,145.93
2023-03-20T18:37:46.356Z,146.20
2023-03-20T18:40:25.868Z,146.70
2023-03-20T18:42:54.192Z,145.90
2023-03-20T18:45:22.586Z,147.03
2023-03-20T18:47:51.080Z,146.50
2023-03-20T18:50:25.840Z,146.97
2023-03-20T18:52:54.402Z,147.13
2023-03-20T18:55:24.848Z,146.80
2023-03-20T18:57:55.060Z,146.23
2023-03-20T19:00:25.484Z,146.67
2023-03-20T19:02:55.047Z,147.13
2023-03-20T19:05:24.024Z,147.20
2023-03-20T19:07:53.739Z,146.83
2023-03-20T19:10:33.777Z,147.23
2023-03-20T19:13:01.678Z,146.40
2023-03-20T19:15:35.248Z,146.17
2023-03-20T19:18:03.580Z,146.53
2023-03-20T19:20:36.048Z,147.13
2023-03-20T19:23:05.803Z,147.00
2023-03-20T19:25:36.071Z,146.53
2023-03-20T19:28:05.458Z,146.97
2023-03-20T19:30:36.492Z,146.97
2023-03-20T19:33:06.131Z,146.80
2023-03-20T19:38:23.287Z,146.20
2023-03-20T19:40:53.816Z,146.57
2023-03-20T19:43:22.257Z,147.43
2023-03-20T19:45:55.374Z,146.53
2023-03-20T19:48:26.998Z,147.47
2023-03-20T19:50:56.226Z,147.00
2023-03-20T19:53:27.756Z,146.73
2023-03-20T19:55:57.918Z,147.10
2023-03-20T19:58:25.796Z,147.20
2023-03-20T20:00:57.681Z,147.13
2023-03-20T20:03:27.405Z,147.00
2023-03-20T20:05:55.403Z,147.47
2023-03-20T20:08:33.407Z,147.30
2023-03-20T20:11:09.739Z,147.53
2023-03-20T20:13:50.744Z,146.83
2023-03-20T20:16:25.385Z,146.57
2023-03-20T20:18:53.207Z,146.67
2023-03-20T20:24:08.912Z,147.03
2023-03-20T20:26:41.183Z,146.80
2023-03-20T20:29:15.632Z,146.97
2023-03-20T20:31:44.514Z,147.10
2023-03-20T20:35:14.807Z,147.20
2023-03-20T20:39:50.178Z,147.70
2023-03-20T20:42:20.315Z,147.10
2023-03-20T20:44:48.288Z,147.47
2023-03-20T20:47:17.027Z,147.33
2023-03-20T20:49:47.514Z,147.10
2023-03-20T20:52:16.434Z,147.23
2023-03-20T20:54:44.449Z,146.80
2023-03-20T20:57:12.774Z,146.97
2023-03-20T20:59:42.175Z,147.17
2023-03-20T21:02:11.939Z,147.03
2023-03-20T21:04:40.945Z,148.00
2023-03-20T21:07:11.593Z,147.63
2023-03-20T21:09:40.146Z,147.07
2023-03-20T21:12:10.182Z,147.30
2023-03-20T21:14:38.339Z,146.97
2023-03-20T21:17:08.894Z,146.53
2023-03-20T21:19:38.142Z,147.23
2023-03-20T21:22:07.324Z,147.70
2023-03-20T21:24:35.861Z,146.90
2023-03-20T21:27:06.654Z,147.40
2023-03-20T21:29:34.740Z,147.07
2023-03-20T21:32:02.730Z,146.83
2023-03-20T21:34:32.683Z,147.20
2023-03-20T21:37:23.852Z,147.23
2023-03-20T21:39:51.190Z,146.87
2023-03-20T21:42:20.348Z,146.97
2023-03-20T21:59:27.041Z,146.37
2023-03-20T22:05:16.802Z,146.40
2023-03-20T22:10:55.645Z,146.80
2023-03-20T22:16:24.169Z,146.17
2023-03-20T22:21:56.007Z,146.20
2023-03-20T22:27:45.048Z,146.77
2023-03-20T22:33:09.534Z,146.27
2023-03-20T22:36:02.873Z,146.40
2023-03-20T22:41:59.199Z,146.33
2023-03-20T22:46:47.266Z,146.17
2023-03-20T22:49:15.926Z,146.63
2023-03-20T22:51:57.437Z,145.97
2023-03-20T22:54:31.511Z,146.57
2023-03-20T22:57:01.133Z,146.10
2023-03-20T22:59:28.986Z,146.00
2023-03-20T23:01:56.855Z,146.27
2023-03-20T23:04:27.863Z,146.87
2023-03-20T23:06:57.411Z,146.33
2023-03-20T23:09:25.239Z,146.53
2023-03-20T23:11:53.039Z,146.40
2023-03-20T23:14:22.683Z,146.23
2023-03-20T23:16:50.794Z,145.80
2023-03-20T23:19:18.648Z,146.50
2023-03-20T23:21:46.511Z,146.43
2023-03-20T23:24:14.325Z,146.17
2023-03-20T23:26:42.163Z,146.17
2023-03-20T23:29:10.161Z,146.20
2023-03-20T23:31:39.302Z,146.47
2023-03-20T23:34:07.235Z,146.33
2023-03-20T23:36:37.198Z,146.13
2023-03-20T23:39:06.010Z,146.37
2023-03-20T23:42:02.318Z,145.97
2023-03-20T23:44:21.965Z,146.40
2023-03-20T23:46:51.179Z,146.40
2023-03-20T23:49:19.244Z,145.40
2023-03-20T23:51:47.280Z,145.73
2023-03-20T23:54:15.847Z,145.70
2023-03-20T23:56:43.695Z,145.83
2023-03-20T23:59:21.027Z,146.53
